AZA24Z LROP-LICC
Flight info
| Callsign | AZA24Z |
|---|---|
| Flight time | 1h 48m |
| Altitude | 36000 |
| Route | POLUN DCT TIMUR N731 LETNI DCT DOBAR DCT GOKEL DCT DODEL Q72 PIMOR |
| Aircraft | B77W/H-SDE1E2E3FGHIJ2J3J4J5M1RWXY/LB1D1 |
Departure
| Time | 2026-05-06 08:22 |
|---|---|
| Airport | Bucharest Henri Coandă International Airport (LROP) |
Arrival
| Time | 2026-05-06 10:10 |
|---|---|
| Airport | Catania-Fontanarossa Airport (LICC) |
| Time | Latitude | Longitude | Altitude | Speed | Heading |
|---|---|---|---|---|---|
| 2026-05-06 07:59 | 44.57040 | 26.08255 | 327 ft | 0 kts | 309° |
| 2026-05-06 08:14 | 44.57036 | 26.08262 | 323 ft | 2 kts | 308° |
| 2026-05-06 08:14 | 44.57025 | 26.08281 | 323 ft | 2 kts | 309° |
| 2026-05-06 08:15 | 44.57015 | 26.08299 | 323 ft | 2 kts | 309° |
| 2026-05-06 08:15 | 44.57004 | 26.08317 | 323 ft | 2 kts | 309° |
| 2026-05-06 08:15 | 44.56994 | 26.08335 | 323 ft | 2 kts | 309° |
| 2026-05-06 08:15 | 44.56984 | 26.08353 | 323 ft | 2 kts | 309° |
| 2026-05-06 08:16 | 44.56973 | 26.08370 | 323 ft | 2 kts | 309° |
| 2026-05-06 08:16 | 44.56962 | 26.08387 | 323 ft | 2 kts | 328° |
| 2026-05-06 08:16 | 44.56947 | 26.08396 | 323 ft | 2 kts | 347° |
| 2026-05-06 08:16 | 44.56934 | 26.08400 | 323 ft | 1 kts | 352° |
| 2026-05-06 08:17 | 44.56932 | 26.08400 | 323 ft | 0 kts | 352° |
| 2026-05-06 08:18 | 44.56942 | 26.08399 | 323 ft | 3 kts | 353° |
| 2026-05-06 08:18 | 44.56966 | 26.08394 | 323 ft | 4 kts | 353° |
| 2026-05-06 08:19 | 44.56997 | 26.08389 | 323 ft | 7 kts | 353° |
| 2026-05-06 08:19 | 44.57079 | 26.08377 | 323 ft | 13 kts | 354° |
| 2026-05-06 08:19 | 44.57171 | 26.08364 | 325 ft | 12 kts | 355° |
| 2026-05-06 08:19 | 44.57226 | 26.08439 | 324 ft | 13 kts | 79° |
| 2026-05-06 08:20 | 44.57269 | 26.08495 | 325 ft | 9 kts | 2° |
| 2026-05-06 08:20 | 44.57333 | 26.08490 | 324 ft | 10 kts | 355° |
| 2026-05-06 08:20 | 44.57413 | 26.08480 | 325 ft | 13 kts | 355° |
| 2026-05-06 08:20 | 44.57500 | 26.08466 | 323 ft | 7 kts | 353° |
| 2026-05-06 08:21 | 44.57509 | 26.08464 | 324 ft | 5 kts | 353° |
| 2026-05-06 08:21 | 44.57611 | 26.08453 | 325 ft | 18 kts | 4° |
| 2026-05-06 08:21 | 44.57676 | 26.08618 | 328 ft | 33 kts | 83° |
| 2026-05-06 08:21 | 44.57730 | 26.09332 | 324 ft | 113 kts | 84° |
| 2026-05-06 08:22 | 44.57834 | 26.10735 | 332 ft | 175 kts | 83° |
| 2026-05-06 08:22 | 44.57963 | 26.12536 | 836 ft | 189 kts | 85° |
| 2026-05-06 08:22 | 44.58096 | 26.14362 | 1715 ft | 189 kts | 86° |
| 2026-05-06 08:22 | 44.58237 | 26.16202 | 2570 ft | 192 kts | 85° |
| 2026-05-06 08:23 | 44.58392 | 26.18096 | 3314 ft | 198 kts | 84° |
| 2026-05-06 08:23 | 44.58551 | 26.20054 | 3843 ft | 210 kts | 83° |
| 2026-05-06 08:23 | 44.58732 | 26.22227 | 4149 ft | 238 kts | 83° |
| 2026-05-06 08:23 | 44.58937 | 26.24663 | 4528 ft | 262 kts | 83° |
| 2026-05-06 08:24 | 44.59154 | 26.27239 | 5313 ft | 267 kts | 83° |
| 2026-05-06 08:24 | 44.58906 | 26.29843 | 6130 ft | 274 kts | 113° |
| 2026-05-06 08:24 | 44.57818 | 26.32035 | 7032 ft | 278 kts | 135° |
| 2026-05-06 08:24 | 44.56257 | 26.33669 | 7760 ft | 285 kts | 156° |
| 2026-05-06 08:25 | 44.54328 | 26.34246 | 8491 ft | 291 kts | 174° |
| 2026-05-06 08:25 | 44.52280 | 26.34476 | 9225 ft | 298 kts | 175° |
| 2026-05-06 08:25 | 44.50196 | 26.34702 | 10086 ft | 302 kts | 174° |
| 2026-05-06 08:25 | 44.48074 | 26.34954 | 10722 ft | 314 kts | 174° |
| 2026-05-06 08:26 | 44.45797 | 26.35257 | 10951 ft | 342 kts | 173° |
| 2026-05-06 08:26 | 44.43333 | 26.35603 | 11176 ft | 370 kts | 173° |
| 2026-05-06 08:26 | 44.40709 | 26.35686 | 11524 ft | 386 kts | 189° |
| 2026-05-06 08:26 | 44.38166 | 26.34417 | 12409 ft | 393 kts | 211° |
| 2026-05-06 08:27 | 44.36009 | 26.32058 | 13467 ft | 396 kts | 227° |
| 2026-05-06 08:27 | 44.34417 | 26.28911 | 14430 ft | 396 kts | 245° |
| 2026-05-06 08:27 | 44.33288 | 26.25420 | 15203 ft | 404 kts | 248° |
| 2026-05-06 08:27 | 44.32196 | 26.21763 | 16062 ft | 411 kts | 249° |
| 2026-05-06 08:28 | 44.31109 | 26.18051 | 16972 ft | 416 kts | 249° |
| 2026-05-06 08:28 | 44.30000 | 26.14290 | 17891 ft | 421 kts | 249° |
| 2026-05-06 08:28 | 44.28863 | 26.10487 | 18722 ft | 427 kts | 249° |
| 2026-05-06 08:28 | 44.27699 | 26.06653 | 19515 ft | 431 kts | 249° |
| 2026-05-06 08:29 | 44.26512 | 26.02791 | 20335 ft | 435 kts | 248° |
| 2026-05-06 08:29 | 44.25305 | 25.98897 | 21123 ft | 439 kts | 248° |
| 2026-05-06 08:29 | 44.24081 | 25.94966 | 21889 ft | 443 kts | 248° |
| 2026-05-06 08:29 | 44.22859 | 25.91055 | 22656 ft | 447 kts | 248° |
| 2026-05-06 08:30 | 44.21608 | 25.87064 | 23399 ft | 451 kts | 248° |
| 2026-05-06 08:30 | 44.20343 | 25.83032 | 24057 ft | 455 kts | 249° |
| 2026-05-06 08:30 | 44.19068 | 25.78974 | 24679 ft | 459 kts | 249° |
| 2026-05-06 08:30 | 44.17784 | 25.74890 | 25280 ft | 462 kts | 249° |
| 2026-05-06 08:31 | 44.16486 | 25.70764 | 25868 ft | 466 kts | 249° |
| 2026-05-06 08:31 | 44.15177 | 25.66615 | 26422 ft | 469 kts | 249° |
| 2026-05-06 08:31 | 44.13858 | 25.62437 | 27009 ft | 473 kts | 249° |
| 2026-05-06 08:31 | 44.12528 | 25.58231 | 27542 ft | 476 kts | 249° |
| 2026-05-06 08:32 | 44.11203 | 25.54048 | 28058 ft | 479 kts | 249° |
| 2026-05-06 08:32 | 44.09850 | 25.49786 | 28571 ft | 482 kts | 249° |
| 2026-05-06 08:32 | 44.08487 | 25.45497 | 29046 ft | 485 kts | 249° |
| 2026-05-06 08:32 | 44.07117 | 25.41194 | 29490 ft | 488 kts | 249° |
| 2026-05-06 08:33 | 44.05735 | 25.36862 | 29930 ft | 490 kts | 249° |
| 2026-05-06 08:33 | 44.04352 | 25.32535 | 30415 ft | 489 kts | 249° |
| 2026-05-06 08:33 | 44.02971 | 25.28225 | 30991 ft | 486 kts | 249° |
| 2026-05-06 08:33 | 44.01599 | 25.23949 | 31551 ft | 483 kts | 249° |
| 2026-05-06 08:34 | 44.00234 | 25.19699 | 32077 ft | 481 kts | 249° |
| 2026-05-06 08:34 | 43.97508 | 25.11228 | 33008 ft | 479 kts | 249° |
| 2026-05-06 08:34 | 43.96147 | 25.07007 | 33510 ft | 478 kts | 249° |
| 2026-05-06 08:35 | 43.94792 | 25.02812 | 33973 ft | 476 kts | 249° |
| 2026-05-06 08:35 | 43.93435 | 24.98620 | 34358 ft | 475 kts | 249° |
| 2026-05-06 08:35 | 43.92099 | 24.94496 | 34700 ft | 475 kts | 249° |
| 2026-05-06 08:35 | 43.90748 | 24.90334 | 35027 ft | 475 kts | 249° |
| 2026-05-06 08:36 | 43.89388 | 24.86150 | 35364 ft | 474 kts | 249° |
| 2026-05-06 08:36 | 43.88033 | 24.81987 | 35707 ft | 473 kts | 249° |
| 2026-05-06 08:36 | 43.86675 | 24.77823 | 35962 ft | 475 kts | 249° |
| 2026-05-06 08:37 | 43.83928 | 24.69459 | 36008 ft | 475 kts | 249° |
| 2026-05-06 08:37 | 43.81203 | 24.61196 | 36009 ft | 468 kts | 249° |
| 2026-05-06 08:38 | 43.78514 | 24.53010 | 36012 ft | 466 kts | 249° |
| 2026-05-06 08:38 | 43.75854 | 24.44922 | 36014 ft | 465 kts | 250° |
| 2026-05-06 08:39 | 43.73164 | 24.36766 | 36018 ft | 465 kts | 250° |
| 2026-05-06 08:39 | 43.70555 | 24.29008 | 36013 ft | 468 kts | 246° |
| 2026-05-06 08:40 | 43.66674 | 24.21715 | 36020 ft | 478 kts | 230° |
| 2026-05-06 08:40 | 43.62452 | 24.16696 | 36021 ft | 483 kts | 222° |
| 2026-05-06 08:41 | 43.57086 | 24.11072 | 36019 ft | 484 kts | 221° |
| 2026-05-06 08:41 | 43.51736 | 24.05428 | 36016 ft | 484 kts | 222° |
| 2026-05-06 08:42 | 43.46429 | 23.99751 | 36020 ft | 484 kts | 222° |
| 2026-05-06 08:42 | 43.41111 | 23.94050 | 36018 ft | 485 kts | 222° |
| 2026-05-06 08:43 | 43.35775 | 23.88349 | 36023 ft | 485 kts | 222° |
| 2026-05-06 08:43 | 43.30432 | 23.82656 | 36023 ft | 485 kts | 222° |
| 2026-05-06 08:44 | 43.25110 | 23.77050 | 36029 ft | 485 kts | 221° |
| 2026-05-06 08:44 | 43.19703 | 23.71487 | 36032 ft | 486 kts | 221° |
| 2026-05-06 08:45 | 43.14294 | 23.65943 | 36040 ft | 485 kts | 221° |
| 2026-05-06 08:45 | 43.08889 | 23.60396 | 36040 ft | 485 kts | 221° |
| 2026-05-06 08:46 | 43.03468 | 23.54837 | 36072 ft | 486 kts | 221° |
| 2026-05-06 08:46 | 42.98054 | 23.49295 | 36074 ft | 486 kts | 221° |
| 2026-05-06 08:47 | 42.92678 | 23.43806 | 36076 ft | 486 kts | 222° |
| 2026-05-06 08:47 | 42.87306 | 23.38335 | 36081 ft | 485 kts | 222° |
| 2026-05-06 08:48 | 42.81900 | 23.32840 | 36078 ft | 485 kts | 222° |
| 2026-05-06 08:48 | 42.76478 | 23.27342 | 36074 ft | 484 kts | 222° |
| 2026-05-06 08:49 | 42.71076 | 23.21876 | 36079 ft | 484 kts | 222° |
| 2026-05-06 08:49 | 42.65671 | 23.16418 | 36080 ft | 483 kts | 222° |
| 2026-05-06 08:50 | 42.60272 | 23.10978 | 36075 ft | 483 kts | 222° |
| 2026-05-06 08:50 | 42.54919 | 23.05598 | 36080 ft | 482 kts | 222° |
| 2026-05-06 08:51 | 42.49531 | 23.00194 | 36087 ft | 481 kts | 222° |
| 2026-05-06 08:51 | 42.44156 | 22.94816 | 36087 ft | 480 kts | 221° |
| 2026-05-06 08:52 | 42.38784 | 22.89451 | 36087 ft | 480 kts | 221° |
| 2026-05-06 08:52 | 42.33403 | 22.84088 | 36082 ft | 479 kts | 221° |
| 2026-05-06 08:53 | 42.28044 | 22.78759 | 36090 ft | 478 kts | 221° |
| 2026-05-06 08:53 | 42.22678 | 22.73434 | 36088 ft | 478 kts | 221° |
| 2026-05-06 08:54 | 42.17321 | 22.68127 | 36091 ft | 478 kts | 221° |
| 2026-05-06 08:54 | 42.12098 | 22.62706 | 36081 ft | 473 kts | 229° |
| 2026-05-06 08:55 | 42.08049 | 22.55897 | 36084 ft | 462 kts | 244° |
| 2026-05-06 08:55 | 42.05244 | 22.48211 | 36091 ft | 457 kts | 250° |
| 2026-05-06 08:56 | 42.02588 | 22.40435 | 36086 ft | 457 kts | 249° |
| 2026-05-06 08:56 | 41.99904 | 22.32684 | 36083 ft | 458 kts | 249° |
| 2026-05-06 08:57 | 41.97176 | 22.24922 | 36101 ft | 458 kts | 249° |
| 2026-05-06 08:57 | 41.94460 | 22.17239 | 36096 ft | 457 kts | 249° |
| 2026-05-06 08:58 | 41.91724 | 22.09528 | 36091 ft | 456 kts | 249° |
| 2026-05-06 08:58 | 41.88992 | 22.01842 | 36078 ft | 455 kts | 249° |
| 2026-05-06 08:59 | 41.86262 | 21.94184 | 36078 ft | 454 kts | 248° |
| 2026-05-06 08:59 | 41.83538 | 21.86561 | 36079 ft | 453 kts | 248° |
| 2026-05-06 09:00 | 41.80823 | 21.78982 | 36078 ft | 452 kts | 248° |
| 2026-05-06 09:00 | 41.78090 | 21.71373 | 36078 ft | 452 kts | 248° |
| 2026-05-06 09:01 | 41.75352 | 21.63773 | 36082 ft | 453 kts | 248° |
| 2026-05-06 09:01 | 41.72608 | 21.56177 | 36085 ft | 454 kts | 248° |
| 2026-05-06 09:02 | 41.69855 | 21.48574 | 36093 ft | 455 kts | 248° |
| 2026-05-06 09:02 | 41.67100 | 21.40987 | 36082 ft | 455 kts | 248° |
| 2026-05-06 09:03 | 41.64330 | 21.33384 | 36088 ft | 455 kts | 248° |
| 2026-05-06 09:03 | 41.61552 | 21.25770 | 36085 ft | 456 kts | 247° |
| 2026-05-06 09:04 | 41.58767 | 21.18162 | 36086 ft | 455 kts | 247° |
| 2026-05-06 09:04 | 41.55980 | 21.10569 | 36089 ft | 454 kts | 247° |
| 2026-05-06 09:05 | 41.53192 | 21.02995 | 36083 ft | 453 kts | 247° |
| 2026-05-06 09:05 | 41.50410 | 20.95456 | 36095 ft | 453 kts | 247° |
| 2026-05-06 09:06 | 41.47645 | 20.87978 | 36099 ft | 452 kts | 247° |
| 2026-05-06 09:06 | 41.44856 | 20.80462 | 36105 ft | 451 kts | 246° |
| 2026-05-06 09:07 | 41.42070 | 20.72967 | 36098 ft | 450 kts | 246° |
| 2026-05-06 09:07 | 41.39290 | 20.65511 | 36110 ft | 449 kts | 246° |
| 2026-05-06 09:08 | 41.36529 | 20.58120 | 36115 ft | 449 kts | 246° |
| 2026-05-06 09:08 | 41.33745 | 20.50697 | 36124 ft | 448 kts | 245° |
| 2026-05-06 09:09 | 41.30517 | 20.43566 | 36117 ft | 451 kts | 240° |
| 2026-05-06 09:09 | 41.27104 | 20.36561 | 36104 ft | 451 kts | 240° |
| 2026-05-06 09:10 | 41.23694 | 20.29551 | 36110 ft | 451 kts | 240° |
| 2026-05-06 09:10 | 41.20297 | 20.22539 | 36101 ft | 451 kts | 240° |
| 2026-05-06 09:11 | 41.16902 | 20.15531 | 36106 ft | 452 kts | 240° |
| 2026-05-06 09:11 | 41.13515 | 20.08554 | 36105 ft | 452 kts | 240° |
| 2026-05-06 09:12 | 41.10103 | 20.01544 | 36102 ft | 452 kts | 239° |
| 2026-05-06 09:12 | 41.06693 | 19.94554 | 36110 ft | 451 kts | 239° |
| 2026-05-06 09:13 | 41.03277 | 19.87568 | 36105 ft | 452 kts | 239° |
| 2026-05-06 09:13 | 40.99853 | 19.80583 | 36104 ft | 452 kts | 239° |
| 2026-05-06 09:14 | 40.96429 | 19.73612 | 36106 ft | 451 kts | 239° |
| 2026-05-06 09:14 | 40.93006 | 19.66660 | 36103 ft | 451 kts | 239° |
| 2026-05-06 09:15 | 40.89601 | 19.59759 | 36100 ft | 451 kts | 239° |
| 2026-05-06 09:15 | 40.86170 | 19.52820 | 36105 ft | 450 kts | 239° |
| 2026-05-06 09:16 | 40.82736 | 19.45892 | 36104 ft | 450 kts | 239° |
| 2026-05-06 09:16 | 40.79300 | 19.38975 | 36104 ft | 450 kts | 239° |
| 2026-05-06 09:17 | 40.75865 | 19.32075 | 36102 ft | 450 kts | 239° |
| 2026-05-06 09:17 | 40.72425 | 19.25179 | 36101 ft | 450 kts | 238° |
| 2026-05-06 09:18 | 40.68998 | 19.18325 | 36099 ft | 450 kts | 238° |
| 2026-05-06 09:18 | 40.65702 | 19.11746 | 36095 ft | 449 kts | 238° |
| 2026-05-06 09:19 | 40.62247 | 19.04893 | 36097 ft | 449 kts | 236° |
| 2026-05-06 09:19 | 40.58124 | 18.98679 | 36111 ft | 452 kts | 226° |
| 2026-05-06 09:20 | 40.53260 | 18.93405 | 36112 ft | 454 kts | 219° |
| 2026-05-06 09:20 | 40.48180 | 18.88460 | 36099 ft | 455 kts | 219° |
| 2026-05-06 09:21 | 40.43091 | 18.83515 | 36100 ft | 455 kts | 219° |
| 2026-05-06 09:21 | 40.38054 | 18.78590 | 36099 ft | 455 kts | 219° |
| 2026-05-06 09:22 | 40.32991 | 18.73628 | 36097 ft | 455 kts | 219° |
| 2026-05-06 09:22 | 40.27925 | 18.68667 | 36098 ft | 455 kts | 219° |
| 2026-05-06 09:23 | 40.22854 | 18.63712 | 36097 ft | 455 kts | 219° |
| 2026-05-06 09:23 | 40.17771 | 18.58755 | 36093 ft | 455 kts | 219° |
| 2026-05-06 09:24 | 40.12682 | 18.53803 | 36092 ft | 455 kts | 219° |
| 2026-05-06 09:24 | 40.07608 | 18.48874 | 36090 ft | 454 kts | 219° |
| 2026-05-06 09:25 | 40.02569 | 18.43989 | 36096 ft | 454 kts | 219° |
| 2026-05-06 09:25 | 39.97498 | 18.39083 | 36098 ft | 454 kts | 219° |
| 2026-05-06 09:26 | 39.92425 | 18.34183 | 36100 ft | 453 kts | 219° |
| 2026-05-06 09:26 | 39.87354 | 18.29294 | 36099 ft | 453 kts | 219° |
| 2026-05-06 09:27 | 39.82286 | 18.24418 | 36096 ft | 453 kts | 219° |
| 2026-05-06 09:27 | 39.77216 | 18.19549 | 36096 ft | 453 kts | 219° |
| 2026-05-06 09:28 | 39.72145 | 18.14688 | 36095 ft | 452 kts | 219° |
| 2026-05-06 09:28 | 39.67077 | 18.09839 | 36096 ft | 452 kts | 219° |
| 2026-05-06 09:29 | 39.62007 | 18.04997 | 36095 ft | 452 kts | 218° |
| 2026-05-06 09:29 | 39.56971 | 18.00197 | 36094 ft | 452 kts | 218° |
| 2026-05-06 09:30 | 39.51898 | 17.95370 | 36092 ft | 452 kts | 218° |
| 2026-05-06 09:30 | 39.47651 | 17.91336 | 36088 ft | 452 kts | 218° |
| 2026-05-06 09:31 | 39.42610 | 17.86556 | 36090 ft | 452 kts | 218° |
| 2026-05-06 09:31 | 39.37535 | 17.81753 | 36101 ft | 452 kts | 218° |
| 2026-05-06 09:32 | 39.32465 | 17.76962 | 36081 ft | 452 kts | 218° |
| 2026-05-06 09:32 | 39.27383 | 17.72170 | 36083 ft | 451 kts | 218° |
| 2026-05-06 09:33 | 39.22308 | 17.67393 | 36083 ft | 451 kts | 218° |
| 2026-05-06 09:33 | 39.17230 | 17.62622 | 36090 ft | 451 kts | 218° |
| 2026-05-06 09:34 | 39.12161 | 17.57867 | 36105 ft | 451 kts | 218° |
| 2026-05-06 09:34 | 39.07119 | 17.53148 | 36108 ft | 451 kts | 218° |
| 2026-05-06 09:35 | 39.02042 | 17.48402 | 36105 ft | 451 kts | 218° |
| 2026-05-06 09:35 | 38.96953 | 17.43656 | 36094 ft | 451 kts | 218° |
| 2026-05-06 09:36 | 38.91867 | 17.38921 | 36097 ft | 452 kts | 218° |
| 2026-05-06 09:36 | 38.86764 | 17.34178 | 36090 ft | 452 kts | 218° |
| 2026-05-06 09:37 | 38.81663 | 17.29445 | 36098 ft | 453 kts | 218° |
| 2026-05-06 09:37 | 38.76586 | 17.24744 | 36096 ft | 453 kts | 217° |
| 2026-05-06 09:38 | 38.71470 | 17.20015 | 36098 ft | 453 kts | 217° |
| 2026-05-06 09:38 | 38.66352 | 17.15292 | 36105 ft | 454 kts | 217° |
| 2026-05-06 09:39 | 38.61227 | 17.10571 | 36107 ft | 454 kts | 217° |
| 2026-05-06 09:39 | 38.56103 | 17.05860 | 36106 ft | 454 kts | 217° |
| 2026-05-06 09:40 | 38.50967 | 17.01147 | 36103 ft | 454 kts | 217° |
| 2026-05-06 09:40 | 38.43268 | 16.94097 | 36108 ft | 454 kts | 217° |
| 2026-05-06 09:41 | 38.38168 | 16.89438 | 36109 ft | 454 kts | 217° |
| 2026-05-06 09:41 | 38.33034 | 16.84755 | 36103 ft | 453 kts | 217° |
| 2026-05-06 09:42 | 38.27898 | 16.80079 | 36101 ft | 453 kts | 217° |
| 2026-05-06 09:42 | 38.22767 | 16.75416 | 35970 ft | 451 kts | 217° |
| 2026-05-06 09:43 | 38.20209 | 16.73094 | 35613 ft | 452 kts | 217° |
| 2026-05-06 09:43 | 38.17639 | 16.70763 | 35188 ft | 455 kts | 217° |
| 2026-05-06 09:43 | 38.15055 | 16.68421 | 34773 ft | 458 kts | 217° |
| 2026-05-06 09:43 | 38.12455 | 16.66068 | 34366 ft | 459 kts | 217° |
| 2026-05-06 09:44 | 38.09846 | 16.63708 | 33960 ft | 460 kts | 216° |
| 2026-05-06 09:44 | 38.07236 | 16.61350 | 33499 ft | 461 kts | 216° |
| 2026-05-06 09:44 | 38.04615 | 16.58984 | 32978 ft | 464 kts | 216° |
| 2026-05-06 09:44 | 38.01979 | 16.56607 | 32449 ft | 466 kts | 216° |
| 2026-05-06 09:45 | 37.99361 | 16.54247 | 31922 ft | 468 kts | 216° |
| 2026-05-06 09:45 | 37.96700 | 16.51851 | 31439 ft | 470 kts | 216° |
| 2026-05-06 09:45 | 37.94040 | 16.49459 | 31089 ft | 468 kts | 216° |
| 2026-05-06 09:45 | 37.91387 | 16.47075 | 30781 ft | 465 kts | 216° |
| 2026-05-06 09:46 | 37.88753 | 16.44710 | 30486 ft | 463 kts | 216° |
| 2026-05-06 09:46 | 37.86129 | 16.42356 | 30165 ft | 462 kts | 216° |
| 2026-05-06 09:46 | 37.83506 | 16.40004 | 29790 ft | 461 kts | 216° |
| 2026-05-06 09:46 | 37.80896 | 16.37667 | 29460 ft | 459 kts | 216° |
| 2026-05-06 09:47 | 37.78289 | 16.35334 | 29152 ft | 457 kts | 216° |
| 2026-05-06 09:47 | 37.75697 | 16.33017 | 28860 ft | 455 kts | 216° |
| 2026-05-06 09:47 | 37.73119 | 16.30714 | 28565 ft | 453 kts | 216° |
| 2026-05-06 09:47 | 37.70548 | 16.28419 | 28268 ft | 451 kts | 216° |
| 2026-05-06 09:48 | 37.68023 | 16.26165 | 27985 ft | 450 kts | 216° |
| 2026-05-06 09:48 | 37.65472 | 16.23893 | 27695 ft | 448 kts | 216° |
| 2026-05-06 09:48 | 37.63003 | 16.21546 | 27346 ft | 443 kts | 224° |
| 2026-05-06 09:48 | 37.61093 | 16.18513 | 26926 ft | 442 kts | 241° |
| 2026-05-06 09:49 | 37.59879 | 16.14972 | 26661 ft | 439 kts | 254° |
| 2026-05-06 09:49 | 37.59370 | 16.11207 | 26408 ft | 434 kts | 264° |
| 2026-05-06 09:49 | 37.59108 | 16.07424 | 26099 ft | 433 kts | 264° |
| 2026-05-06 09:49 | 37.58846 | 16.03642 | 25820 ft | 432 kts | 264° |
| 2026-05-06 09:50 | 37.58562 | 15.99878 | 25585 ft | 430 kts | 264° |
| 2026-05-06 09:50 | 37.58259 | 15.96139 | 25367 ft | 427 kts | 263° |
| 2026-05-06 09:50 | 37.57945 | 15.92426 | 25142 ft | 425 kts | 263° |
| 2026-05-06 09:50 | 37.57627 | 15.88727 | 24929 ft | 423 kts | 263° |
| 2026-05-06 09:51 | 37.57334 | 15.85043 | 24590 ft | 422 kts | 266° |
| 2026-05-06 09:51 | 37.57261 | 15.81350 | 24020 ft | 420 kts | 270° |
| 2026-05-06 09:51 | 37.57328 | 15.77685 | 23504 ft | 415 kts | 271° |
| 2026-05-06 09:51 | 37.57424 | 15.74120 | 22978 ft | 409 kts | 271° |
| 2026-05-06 09:52 | 37.57508 | 15.70549 | 22424 ft | 405 kts | 271° |
| 2026-05-06 09:52 | 37.57571 | 15.67008 | 21816 ft | 402 kts | 270° |
| 2026-05-06 09:52 | 37.57615 | 15.63493 | 21213 ft | 399 kts | 270° |
| 2026-05-06 09:52 | 37.57649 | 15.60001 | 20644 ft | 396 kts | 270° |
| 2026-05-06 09:53 | 37.57677 | 15.56561 | 20044 ft | 384 kts | 270° |
| 2026-05-06 09:53 | 37.57703 | 15.53247 | 18895 ft | 374 kts | 270° |
| 2026-05-06 09:53 | 37.57727 | 15.50018 | 17501 ft | 370 kts | 270° |
| 2026-05-06 09:53 | 37.57750 | 15.46790 | 16124 ft | 365 kts | 270° |
| 2026-05-06 09:54 | 37.57773 | 15.43616 | 14830 ft | 359 kts | 270° |
| 2026-05-06 09:54 | 37.57789 | 15.40506 | 13665 ft | 353 kts | 269° |
| 2026-05-06 09:54 | 37.57759 | 15.37431 | 13224 ft | 348 kts | 268° |
| 2026-05-06 09:54 | 37.57715 | 15.34389 | 12704 ft | 346 kts | 268° |
| 2026-05-06 09:55 | 37.57668 | 15.31367 | 12211 ft | 343 kts | 268° |
| 2026-05-06 09:55 | 37.57624 | 15.28366 | 11731 ft | 341 kts | 268° |
| 2026-05-06 09:55 | 37.57581 | 15.25386 | 11248 ft | 339 kts | 268° |
| 2026-05-06 09:55 | 37.57540 | 15.22437 | 10966 ft | 327 kts | 268° |
| 2026-05-06 09:56 | 37.57504 | 15.19708 | 10763 ft | 296 kts | 267° |
| 2026-05-06 09:56 | 37.57470 | 15.17225 | 10505 ft | 273 kts | 267° |
| 2026-05-06 09:56 | 37.57433 | 15.14844 | 10216 ft | 269 kts | 266° |
| 2026-05-06 09:56 | 37.57294 | 15.12516 | 10051 ft | 262 kts | 262° |
| 2026-05-06 09:57 | 37.57102 | 15.10286 | 9838 ft | 257 kts | 262° |
| 2026-05-06 09:57 | 37.56901 | 15.08059 | 9521 ft | 256 kts | 262° |
| 2026-05-06 09:57 | 37.56701 | 15.05832 | 9191 ft | 256 kts | 262° |
| 2026-05-06 09:57 | 37.56506 | 15.03600 | 8882 ft | 255 kts | 262° |
| 2026-05-06 09:58 | 37.56313 | 15.01385 | 8581 ft | 254 kts | 262° |
| 2026-05-06 09:58 | 37.56122 | 14.99175 | 8277 ft | 253 kts | 262° |
| 2026-05-06 09:58 | 37.55931 | 14.96964 | 7991 ft | 252 kts | 262° |
| 2026-05-06 09:58 | 37.55742 | 14.94771 | 7677 ft | 252 kts | 262° |
| 2026-05-06 09:59 | 37.55555 | 14.92574 | 7380 ft | 252 kts | 261° |
| 2026-05-06 09:59 | 37.55368 | 14.90385 | 7113 ft | 251 kts | 261° |
| 2026-05-06 09:59 | 37.55181 | 14.88194 | 6822 ft | 251 kts | 261° |
| 2026-05-06 09:59 | 37.54995 | 14.86005 | 6535 ft | 251 kts | 261° |
| 2026-05-06 10:00 | 37.54804 | 14.83814 | 6239 ft | 251 kts | 261° |
| 2026-05-06 10:00 | 37.54620 | 14.81654 | 5960 ft | 251 kts | 261° |
| 2026-05-06 10:00 | 37.54429 | 14.79447 | 5686 ft | 250 kts | 261° |
| 2026-05-06 10:00 | 37.54240 | 14.77267 | 5378 ft | 250 kts | 261° |
| 2026-05-06 10:01 | 37.54054 | 14.75123 | 5139 ft | 249 kts | 261° |
| 2026-05-06 10:01 | 37.53867 | 14.72984 | 5029 ft | 242 kts | 261° |
| 2026-05-06 10:01 | 37.53685 | 14.70903 | 5000 ft | 235 kts | 261° |
| 2026-05-06 10:01 | 37.53513 | 14.68888 | 4984 ft | 230 kts | 261° |
| 2026-05-06 10:02 | 37.53150 | 14.66980 | 4996 ft | 222 kts | 238° |
| 2026-05-06 10:02 | 37.52079 | 14.65632 | 4992 ft | 219 kts | 206° |
| 2026-05-06 10:02 | 37.50608 | 14.65133 | 4974 ft | 222 kts | 181° |
| 2026-05-06 10:02 | 37.49077 | 14.65236 | 4999 ft | 222 kts | 175° |
| 2026-05-06 10:03 | 37.47537 | 14.65444 | 4988 ft | 223 kts | 174° |
| 2026-05-06 10:03 | 37.46008 | 14.65667 | 4978 ft | 218 kts | 170° |
| 2026-05-06 10:03 | 37.44658 | 14.66442 | 4977 ft | 216 kts | 140° |
| 2026-05-06 10:03 | 37.43705 | 14.67911 | 4977 ft | 217 kts | 122° |
| 2026-05-06 10:04 | 37.43369 | 14.69727 | 4971 ft | 217 kts | 86° |
| 2026-05-06 10:04 | 37.43598 | 14.71616 | 4971 ft | 220 kts | 83° |
| 2026-05-06 10:04 | 37.43838 | 14.73476 | 4950 ft | 211 kts | 84° |
| 2026-05-06 10:04 | 37.44029 | 14.75303 | 4659 ft | 208 kts | 85° |
| 2026-05-06 10:05 | 37.44188 | 14.77087 | 4381 ft | 203 kts | 86° |
| 2026-05-06 10:05 | 37.44336 | 14.78823 | 4123 ft | 197 kts | 85° |
| 2026-05-06 10:05 | 37.44483 | 14.80528 | 3874 ft | 196 kts | 85° |
| 2026-05-06 10:05 | 37.44626 | 14.82235 | 3610 ft | 196 kts | 85° |
| 2026-05-06 10:06 | 37.44767 | 14.83911 | 3377 ft | 194 kts | 85° |
| 2026-05-06 10:06 | 37.44906 | 14.85573 | 3112 ft | 188 kts | 86° |
| 2026-05-06 10:06 | 37.45044 | 14.87182 | 2887 ft | 183 kts | 85° |
| 2026-05-06 10:06 | 37.45180 | 14.88826 | 2613 ft | 191 kts | 86° |
| 2026-05-06 10:07 | 37.45306 | 14.90465 | 2339 ft | 187 kts | 85° |
| 2026-05-06 10:07 | 37.45444 | 14.92017 | 2125 ft | 168 kts | 85° |
| 2026-05-06 10:07 | 37.45571 | 14.93411 | 1933 ft | 157 kts | 85° |
| 2026-05-06 10:07 | 37.45689 | 14.94743 | 1734 ft | 149 kts | 86° |
| 2026-05-06 10:08 | 37.45752 | 14.96044 | 1491 ft | 143 kts | 89° |
| 2026-05-06 10:08 | 37.45864 | 14.97310 | 1420 ft | 151 kts | 83° |
| 2026-05-06 10:08 | 37.45998 | 14.98651 | 1179 ft | 153 kts | 87° |
| 2026-05-06 10:08 | 37.46105 | 14.99963 | 949 ft | 152 kts | 84° |
| 2026-05-06 10:09 | 37.46220 | 15.01218 | 709 ft | 142 kts | 86° |
| 2026-05-06 10:09 | 37.46320 | 15.02444 | 540 ft | 143 kts | 84° |
| 2026-05-06 10:09 | 37.46427 | 15.03715 | 325 ft | 147 kts | 83° |
| 2026-05-06 10:09 | 37.46538 | 15.04967 | 134 ft | 142 kts | 83° |
| 2026-05-06 10:10 | 37.46637 | 15.06171 | 40 ft | 133 kts | 84° |
| 2026-05-06 10:10 | 37.46718 | 15.07155 | 40 ft | 89 kts | 77° |
| 2026-05-06 10:10 | 37.46818 | 15.07705 | 41 ft | 47 kts | 56° |
| 2026-05-06 10:10 | 37.46908 | 15.07823 | 38 ft | 8 kts | 5° |
| 2026-05-06 10:11 | 37.46932 | 15.07794 | 37 ft | 8 kts | 292° |
| 2026-05-06 10:11 | 37.46932 | 15.07678 | 37 ft | 19 kts | 262° |
| 2026-05-06 10:11 | 37.46913 | 15.07460 | 37 ft | 30 kts | 266° |
| 2026-05-06 10:11 | 37.46891 | 15.07196 | 37 ft | 30 kts | 263° |
| 2026-05-06 10:12 | 37.46869 | 15.06937 | 37 ft | 30 kts | 264° |
| 2026-05-06 10:12 | 37.46847 | 15.06677 | 37 ft | 30 kts | 264° |
| 2026-05-06 10:12 | 37.46827 | 15.06433 | 37 ft | 16 kts | 265° |
| 2026-05-06 10:12 | 37.46851 | 15.06374 | 36 ft | 8 kts | 338° |
| 2026-05-06 10:13 | 37.46928 | 15.06380 | 36 ft | 12 kts | 25° |
| 2026-05-06 10:13 | 37.46966 | 15.06408 | 36 ft | 0 kts | 31° |